Time;durP1;ratioP1;P1;durP2;ratioP2;P2;SDS_P1;SDS_P2;PMS_P1;PMS_P2;Temp;Humidity;BMP_temperature;BMP_pressure;BME280_temperature;BME280_humidity;BME280_pressure;Samples;Min_cycle;Max_cycle;Signal;HPM_P1;HPM_P2
2023/12/13 00:45:20;;;;;;;3.07;1.73;;;9.50;99.90;;;;;;4827160;29;20213;-81
2023/12/13 00:48:59;;;;;;;2.97;1.70;;;9.50;99.90;;;;;;4956732;23;20217;-80
2023/12/13 00:52:32;;;;;;;2.83;1.73;;;9.50;99.90;;;;;;4984602;28;20203;-81
2023/12/13 06:19:37;;;;;;;7.23;3.33;;;10.10;99.90;;;;;;5106890;27;20975;-79
2023/12/13 06:22:07;;;;;;;8.93;3.77;;;9.80;99.90;;;;;;5104107;28;20207;-80
2023/12/13 06:28:24;;;;;;;5.33;3.00;;;9.60;99.90;;;;;;5062175;28;20213;-81
2023/12/13 06:30:55;;;;;;;6.77;3.97;;;9.50;99.90;;;;;;5089311;28;20215;-82
2023/12/13 06:33:29;;;;;;;11.53;3.23;;;9.50;99.90;;;;;;5089491;28;20220;-83
2023/12/13 06:39:12;;;;;;;9.00;3.33;;;9.50;99.90;;;;;;5063475;28;20205;-82
2023/12/13 06:49:30;;;;;;;6.97;2.93;;;9.50;99.90;;;;;;5009183;28;20184;-82
2023/12/13 06:52:00;;;;;;;8.80;2.97;;;9.50;99.90;;;;;;5057179;28;20225;-81
2023/12/13 06:54:28;;;;;;;7.50;4.00;;;9.50;99.90;;;;;;5104205;28;20657;-83
2023/12/13 06:56:59;;;;;;;7.47;3.83;;;9.50;99.90;;;;;;5091012;28;20193;-83
2023/12/13 07:02:59;;;;;;;10.03;4.03;;;9.50;99.90;;;;;;5101117;28;20188;-82
2023/12/13 07:05:28;;;;;;;6.83;3.00;;;9.50;99.90;;;;;;5081656;28;20662;-83
2023/12/13 07:07:57;;;;;;;8.67;3.57;;;9.50;99.90;;;;;;5089937;28;20694;-83
2023/12/13 07:10:26;;;;;;;8.90;3.97;;;9.50;99.90;;;;;;5089485;28;20204;-83
2023/12/13 07:12:56;;;;;;;7.83;3.50;;;9.50;99.90;;;;;;5090404;28;20205;-83
2023/12/13 07:15:23;;;;;;;8.93;3.87;;;9.50;99.90;;;;;;5082619;28;20198;-79
2023/12/13 07:17:51;;;;;;;6.57;3.40;;;9.50;99.90;;;;;;5091749;28;20221;-82
2023/12/13 07:20:21;;;;;;;11.87;4.13;;;9.50;99.90;;;;;;5107885;28;20197;-82
2023/12/13 07:22:50;;;;;;;7.20;4.00;;;9.50;99.90;;;;;;5091494;28;20200;-79
2023/12/13 07:25:19;;;;;;;7.03;3.83;;;9.50;99.90;;;;;;5106338;28;20201;-82
2023/12/13 07:27:46;;;;;;;7.13;3.83;;;9.50;99.90;;;;;;5089550;28;20213;-83
2023/12/13 07:30:14;;;;;;;11.53;4.83;;;9.50;99.90;;;;;;5076684;28;20208;-83
2023/12/13 07:32:43;;;;;;;7.20;3.90;;;9.60;99.90;;;;;;5074776;28;20204;-82
2023/12/13 07:35:11;;;;;;;8.60;4.10;;;9.60;99.90;;;;;;5076193;28;20201;-80
2023/12/13 07:37:39;;;;;;;8.93;4.43;;;9.60;99.90;;;;;;5094561;28;20229;-82
2023/12/13 07:40:07;;;;;;;8.57;4.43;;;9.60;99.90;;;;;;5079214;28;20204;-82
2023/12/13 07:42:36;;;;;;;7.37;4.00;;;9.70;99.90;;;;;;5076268;28;20193;-84
2023/12/13 07:45:04;;;;;;;8.30;4.00;;;9.70;99.90;;;;;;5094608;28;20200;-84
2023/12/13 07:47:33;;;;;;;7.10;3.73;;;9.70;99.90;;;;;;5081411;28;20218;-84
2023/12/13 07:50:01;;;;;;;10.43;4.50;;;9.80;99.90;;;;;;5094847;28;20201;-84
2023/12/13 07:52:28;;;;;;;8.97;4.40;;;9.70;99.90;;;;;;5078464;28;20198;-84
2023/12/13 07:54:56;;;;;;;12.40;4.57;;;9.80;99.90;;;;;;5095274;28;20198;-84
2023/12/13 07:57:23;;;;;;;11.33;4.47;;;9.70;99.90;;;;;;5095712;28;20229;-84
2023/12/13 07:59:52;;;;;;;6.20;3.93;;;9.70;99.90;;;;;;5076263;28;20193;-84
2023/12/13 08:02:20;;;;;;;7.60;3.70;;;9.70;99.90;;;;;;5080594;28;20216;-84
2023/12/13 08:04:48;;;;;;;11.13;3.80;;;9.70;99.90;;;;;;5079744;28;20201;-84
2023/12/13 08:07:16;;;;;;;10.27;4.43;;;9.60;99.90;;;;;;5100010;28;20228;-85
2023/12/13 08:09:45;;;;;;;8.93;4.67;;;9.60;99.90;;;;;;5086729;28;20190;-83
2023/12/13 08:12:13;;;;;;;7.73;3.60;;;9.60;99.90;;;;;;5085051;28;20201;-83
2023/12/13 08:14:41;;;;;;;7.63;3.73;;;9.60;99.90;;;;;;5081631;28;20198;-84
2023/12/13 08:17:11;;;;;;;10.10;3.90;;;9.50;99.90;;;;;;5081406;28;20237;-84
2023/12/13 08:19:39;;;;;;;6.93;3.10;;;9.60;99.90;;;;;;5081302;28;20206;-84
2023/12/13 08:22:07;;;;;;;10.97;4.03;;;9.60;99.90;;;;;;5078781;28;20201;-84
2023/12/13 08:24:34;;;;;;;8.90;4.20;;;9.60;99.90;;;;;;5081112;28;20197;-83
2023/12/13 08:27:07;;;;;;;8.30;3.67;;;9.60;99.90;;;;;;5080084;28;20220;-84
2023/12/13 08:29:35;;;;;;;11.17;3.50;;;9.60;99.90;;;;;;5098010;28;20918;-83
2023/12/13 08:32:02;;;;;;;9.13;3.20;;;9.60;99.90;;;;;;5081643;28;20207;-83
2023/12/13 08:34:31;;;;;;;9.73;3.80;;;9.60;99.90;;;;;;5082340;28;20201;-83
2023/12/13 08:36:58;;;;;;;11.27;3.87;;;9.60;99.90;;;;;;5082617;28;20236;-83
2023/12/13 08:39:26;;;;;;;8.67;2.87;;;9.60;99.90;;;;;;5082816;28;20222;-83
2023/12/13 08:41:53;;;;;;;8.57;3.17;;;9.60;99.90;;;;;;5080588;28;20198;-83
2023/12/13 08:44:21;;;;;;;6.30;2.97;;;9.60;99.90;;;;;;5085254;28;20197;-83
2023/12/13 08:46:49;;;;;;;7.97;3.17;;;9.60;99.90;;;;;;5085356;28;20677;-83
2023/12/13 08:49:16;;;;;;;8.03;3.50;;;9.50;99.90;;;;;;5084275;28;20198;-83
2023/12/13 08:51:45;;;;;;;9.47;2.83;;;9.50;99.90;;;;;;5082834;28;20201;-83
2023/12/13 08:54:12;;;;;;;8.60;3.30;;;9.50;99.90;;;;;;5084884;28;20206;-83
2023/12/13 08:56:40;;;;;;;6.73;3.37;;;9.60;99.90;;;;;;5084681;28;20749;-83
2023/12/13 08:59:07;;;;;;;12.77;3.60;;;9.60;99.90;;;;;;5084531;28;20205;-83
2023/12/13 09:01:35;;;;;;;8.10;3.07;;;9.60;99.90;;;;;;5084536;28;20221;-83
2023/12/13 09:04:02;;;;;;;9.60;3.90;;;9.60;99.90;;;;;;5091612;28;20197;-83
2023/12/13 09:06:30;;;;;;;8.10;3.17;;;9.60;99.90;;;;;;5076767;28;20200;-83
2023/12/13 09:08:59;;;;;;;5.60;3.20;;;9.60;99.90;;;;;;5076009;28;20213;-83
2023/12/13 09:11:26;;;;;;;8.53;2.80;;;9.60;99.90;;;;;;5089733;28;20202;-83
2023/12/13 09:13:54;;;;;;;7.17;3.63;;;9.70;99.90;;;;;;5073673;28;20190;-83
2023/12/13 09:16:21;;;;;;;8.97;3.23;;;9.70;99.90;;;;;;5075253;28;20201;-83
2023/12/13 09:18:49;;;;;;;7.90;3.27;;;9.70;99.90;;;;;;5076180;28;20229;-83
2023/12/13 09:21:16;;;;;;;9.63;2.90;;;9.70;99.90;;;;;;5075463;28;20202;-83
2023/12/13 09:23:44;;;;;;;8.50;2.80;;;9.70;99.90;;;;;;5074366;28;20206;-83
2023/12/13 09:26:13;;;;;;;10.13;2.87;;;9.70;99.90;;;;;;5083312;28;20208;-83
2023/12/13 09:28:41;;;;;;;8.47;2.93;;;9.70;99.90;;;;;;5085370;28;20217;-83
2023/12/13 09:31:08;;;;;;;4.90;2.20;;;9.70;99.90;;;;;;5101246;28;20213;-83
2023/12/13 09:33:36;;;;;;;4.63;2.40;;;9.70;99.90;;;;;;5098383;28;20220;-82
2023/12/13 09:36:04;;;;;;;4.00;2.47;;;9.70;99.90;;;;;;5080642;28;20201;-83
2023/12/13 09:38:32;;;;;;;8.70;3.23;;;9.60;99.90;;;;;;5079256;28;20221;-84
2023/12/13 09:40:59;;;;;;;6.60;2.87;;;9.70;99.90;;;;;;5080598;28;20552;-83
2023/12/13 09:43:28;;;;;;;7.17;2.70;;;9.70;99.90;;;;;;5078224;28;20559;-83
2023/12/13 09:45:57;;;;;;;4.07;2.50;;;9.70;99.90;;;;;;5081140;28;20189;-83
2023/12/13 09:48:25;;;;;;;5.70;2.73;;;9.70;99.90;;;;;;5081165;28;20591;-83
2023/12/13 09:50:54;;;;;;;4.00;2.10;;;9.80;99.90;;;;;;5080549;28;20197;-82
2023/12/13 09:53:22;;;;;;;3.20;2.00;;;9.80;99.90;;;;;;5078572;28;20212;-82
2023/12/13 09:55:50;;;;;;;7.00;2.80;;;9.80;99.90;;;;;;5079476;28;20212;-83
2023/12/13 09:58:17;;;;;;;7.50;2.47;;;9.90;99.90;;;;;;5080246;28;20225;-83
2023/12/13 10:00:46;;;;;;;3.67;2.40;;;9.90;99.90;;;;;;5091568;28;20186;-83
2023/12/13 10:03:13;;;;;;;4.57;2.57;;;9.80;99.90;;;;;;5077377;28;20202;-83
2023/12/13 10:05:43;;;;;;;11.37;3.00;;;9.90;99.90;;;;;;5094693;28;20200;-83
2023/12/13 10:08:11;;;;;;;5.27;2.47;;;9.90;99.90;;;;;;5087833;28;20226;-83
2023/12/13 10:10:39;;;;;;;4.80;2.33;;;9.90;99.90;;;;;;5073884;28;20201;-82
2023/12/13 10:13:09;;;;;;;5.53;2.50;;;10.00;99.90;;;;;;5088128;28;20212;-83
2023/12/13 10:15:37;;;;;;;4.17;2.30;;;10.20;99.90;;;;;;5082771;28;20247;-83
2023/12/13 10:18:06;;;;;;;10.43;2.87;;;10.20;99.90;;;;;;5077187;28;20226;-83
2023/12/13 10:20:34;;;;;;;8.87;3.07;;;10.20;99.90;;;;;;5090932;28;20225;-83
2023/12/13 10:23:02;;;;;;;8.13;2.63;;;10.20;99.90;;;;;;5077917;28;20196;-82
2023/12/13 10:25:30;;;;;;;9.43;2.47;;;10.10;99.90;;;;;;5077144;28;20193;-83
2023/12/13 10:27:58;;;;;;;9.07;2.60;;;10.10;99.90;;;;;;5088656;28;20229;-83
2023/12/13 10:30:26;;;;;;;6.50;2.57;;;10.10;99.90;;;;;;5075418;28;20183;-83
2023/12/13 10:32:53;;;;;;;6.20;2.53;;;10.20;99.90;;;;;;5079936;28;20205;-83
2023/12/13 10:35:22;;;;;;;10.53;3.20;;;10.20;99.90;;;;;;5092198;28;20678;-83
2023/12/13 10:37:52;;;;;;;5.83;2.87;;;10.20;99.90;;;;;;5093987;28;20224;-83
2023/12/13 10:40:21;;;;;;;6.20;2.97;;;10.10;99.90;;;;;;5091316;28;20217;-83
2023/12/13 10:42:54;;;;;;;9.00;2.67;;;10.00;99.90;;;;;;5105943;22;20221;-77
2023/12/13 10:45:24;;;;;;;10.00;3.50;;;10.00;99.90;;;;;;5051774;28;20563;-77
2023/12/13 10:48:00;;;;;;;8.33;3.40;;;10.00;99.90;;;;;;5063618;28;20214;-77
2023/12/13 10:50:29;;;;;;;11.87;3.30;;;10.00;99.90;;;;;;5037980;28;20203;-77
2023/12/13 10:52:59;;;;;;;7.00;2.47;;;10.00;99.90;;;;;;5051047;28;20226;-77
2023/12/13 10:55:28;;;;;;;7.57;2.83;;;10.10;99.90;;;;;;5049546;28;20198;-77
2023/12/13 10:57:56;;;;;;;8.17;2.80;;;10.00;99.90;;;;;;5041328;28;20199;-78
2023/12/13 11:00:27;;;;;;;6.77;2.60;;;10.10;99.90;;;;;;5031719;28;20576;-78
2023/12/13 11:03:00;;;;;;;5.17;2.73;;;10.10;99.90;;;;;;5041430;28;20222;-78
2023/12/13 11:05:29;;;;;;;6.07;3.13;;;10.10;99.90;;;;;;5047447;28;20214;-79
2023/12/13 11:07:57;;;;;;;4.80;2.43;;;10.10;99.90;;;;;;5042362;28;20710;-78
2023/12/13 11:10:24;;;;;;;6.13;2.80;;;10.10;99.90;;;;;;5044681;28;20699;-78
2023/12/13 11:12:52;;;;;;;5.83;2.10;;;10.10;99.90;;;;;;5047972;28;20221;-77
2023/12/13 11:15:20;;;;;;;5.03;2.87;;;10.10;99.90;;;;;;5040970;28;20202;-77
2023/12/13 11:17:54;;;;;;;7.37;2.83;;;10.10;99.90;;;;;;5043480;28;20712;-78
2023/12/13 11:20:21;;;;;;;5.40;2.70;;;10.10;99.90;;;;;;5035428;28;20214;-78
2023/12/13 11:22:50;;;;;;;6.00;3.10;;;10.10;99.90;;;;;;5040506;28;20215;-78
2023/12/13 11:25:18;;;;;;;8.10;3.30;;;10.10;99.90;;;;;;5046069;28;20207;-78
2023/12/13 11:27:51;;;;;;;5.33;2.30;;;10.10;99.90;;;;;;5049390;28;20190;-78
2023/12/13 11:30:21;;;;;;;8.33;3.10;;;10.10;99.90;;;;;;5060637;28;20216;-77
2023/12/13 11:32:49;;;;;;;7.13;3.00;;;10.10;99.90;;;;;;5065385;28;20214;-77
2023/12/13 11:35:18;;;;;;;10.70;3.13;;;10.00;99.90;;;;;;5052296;28;20591;-77
2023/12/13 11:37:51;;;;;;;5.13;2.77;;;10.00;99.90;;;;;;5048500;28;20195;-77
2023/12/13 11:40:19;;;;;;;8.33;3.13;;;10.00;99.90;;;;;;5048252;28;20225;-77
2023/12/13 11:42:47;;;;;;;9.67;2.70;;;9.90;99.90;;;;;;5039758;28;20236;-77
2023/12/13 11:45:14;;;;;;;4.73;2.73;;;9.90;99.90;;;;;;5053370;28;20206;-77
2023/12/13 11:47:47;;;;;;;8.33;2.90;;;9.90;99.90;;;;;;5039566;28;20202;-77
2023/12/13 11:50:16;;;;;;;8.80;3.03;;;10.00;99.90;;;;;;5052855;28;20202;-77
2023/12/13 11:52:45;;;;;;;6.17;2.67;;;10.00;99.90;;;;;;5052311;28;20218;-78
2023/12/13 11:55:14;;;;;;;6.07;3.10;;;9.90;99.90;;;;;;5048691;28;20207;-77
2023/12/13 11:57:41;;;;;;;6.60;2.50;;;9.90;99.90;;;;;;5042027;28;20579;-77
2023/12/13 12:00:10;;;;;;;3.03;2.10;;;9.80;99.90;;;;;;5038641;28;20576;-77
2023/12/13 12:02:41;;;;;;;2.73;2.00;;;9.90;99.90;;;;;;5054189;28;20210;-78
2023/12/13 12:05:09;;;;;;;6.20;2.47;;;9.90;99.90;;;;;;5051717;28;20201;-78
2023/12/13 12:07:37;;;;;;;5.80;2.30;;;10.00;99.90;;;;;;5059173;28;20198;-77
2023/12/13 12:10:07;;;;;;;4.13;2.10;;;10.10;99.90;;;;;;5041032;28;20237;-77
2023/12/13 12:12:37;;;;;;;4.30;2.30;;;10.10;99.90;;;;;;5050773;28;20221;-78
2023/12/13 12:15:07;;;;;;;2.50;1.93;;;10.10;99.90;;;;;;5055081;28;20202;-78
2023/12/13 12:17:35;;;;;;;3.70;2.10;;;10.00;99.90;;;;;;5054115;28;20213;-78
2023/12/13 12:20:03;;;;;;;3.43;2.13;;;10.00;99.90;;;;;;5054835;28;20199;-78
2023/12/13 12:22:33;;;;;;;4.10;2.37;;;10.00;99.90;;;;;;5049518;28;20211;-78
2023/12/13 12:25:01;;;;;;;6.43;2.50;;;10.00;99.90;;;;;;5053787;28;20194;-78
2023/12/13 12:27:28;;;;;;;4.47;2.97;;;10.00;99.90;;;;;;5044308;28;20673;-78
2023/12/13 12:29:57;;;;;;;5.13;2.33;;;10.00;99.90;;;;;;5044255;28;20199;-78
2023/12/13 12:32:24;;;;;;;4.93;2.53;;;10.00;99.90;;;;;;5047914;28;20232;-79
2023/12/13 12:34:53;;;;;;;4.53;2.43;;;10.00;99.90;;;;;;5048285;28;20210;-78
2023/12/13 12:37:20;;;;;;;5.40;2.73;;;9.90;99.90;;;;;;5047041;28;20184;-78
2023/12/13 12:39:48;;;;;;;3.43;2.40;;;9.90;99.90;;;;;;5036047;28;20623;-77
2023/12/13 12:42:16;;;;;;;5.97;3.30;;;9.90;99.90;;;;;;5054716;28;20230;-78
2023/12/13 12:44:43;;;;;;;6.00;3.10;;;10.00;99.90;;;;;;5054290;28;20191;-78
2023/12/13 12:47:12;;;;;;;6.63;3.17;;;9.80;99.90;;;;;;5035538;28;20203;-78
2023/12/13 12:49:39;;;;;;;4.97;3.37;;;9.80;99.90;;;;;;5046644;28;20198;-78
2023/12/13 12:52:07;;;;;;;5.03;2.90;;;9.70;99.90;;;;;;5045333;28;20676;-78
2023/12/13 12:54:34;;;;;;;6.70;3.40;;;9.60;99.90;;;;;;5046421;28;20194;-78
2023/12/13 12:57:02;;;;;;;4.13;2.50;;;9.50;99.90;;;;;;5041359;28;20187;-78
2023/12/13 12:59:29;;;;;;;5.63;3.20;;;9.50;99.90;;;;;;5054901;28;20202;-78
2023/12/13 13:01:57;;;;;;;3.53;2.63;;;9.50;99.90;;;;;;5042396;28;20569;-78
2023/12/13 13:04:25;;;;;;;6.47;3.57;;;9.30;99.90;;;;;;5046965;28;20656;-78
2023/12/13 13:06:53;;;;;;;3.37;2.70;;;9.30;99.90;;;;;;5052669;28;20218;-78
2023/12/13 13:09:20;;;;;;;5.23;3.20;;;9.30;99.90;;;;;;5044532;28;20199;-78
2023/12/13 13:11:48;;;;;;;5.13;3.10;;;9.30;99.90;;;;;;5052856;28;20217;-78
2023/12/13 13:14:15;;;;;;;3.50;2.93;;;9.30;99.90;;;;;;5050441;28;20198;-78
2023/12/13 13:16:43;;;;;;;4.23;2.80;;;9.30;99.90;;;;;;5054277;28;20579;-78
2023/12/13 13:19:11;;;;;;;3.93;2.50;;;9.30;99.90;;;;;;5054751;28;20198;-78
2023/12/13 13:21:39;;;;;;;5.40;2.60;;;9.30;99.90;;;;;;5052958;28;20242;-78
2023/12/13 13:24:07;;;;;;;3.03;2.13;;;9.30;99.90;;;;;;5054232;28;20202;-78
2023/12/13 13:26:36;;;;;;;3.10;2.30;;;9.30;99.90;;;;;;5051629;28;20229;-78
2023/12/13 13:29:03;;;;;;;4.57;2.50;;;9.30;99.90;;;;;;5054190;28;20202;-78
2023/12/13 13:31:31;;;;;;;4.57;2.27;;;9.20;99.90;;;;;;5053957;28;20210;-78
2023/12/13 13:33:58;;;;;;;2.97;2.13;;;9.10;99.90;;;;;;5052191;28;20676;-78
2023/12/13 13:36:25;;;;;;;3.63;2.67;;;9.10;99.90;;;;;;5053464;28;20190;-78
2023/12/13 13:38:54;;;;;;;3.47;2.77;;;9.20;99.90;;;;;;5048875;28;20202;-78
2023/12/13 13:41:21;;;;;;;3.50;2.90;;;9.10;99.90;;;;;;5034276;28;20215;-78
2023/12/13 13:43:49;;;;;;;3.50;2.60;;;9.20;99.90;;;;;;5035098;28;20202;-78
2023/12/13 13:46:16;;;;;;;5.43;2.93;;;9.20;99.90;;;;;;5041851;28;20186;-78
2023/12/13 13:48:44;;;;;;;4.70;2.83;;;9.20;99.90;;;;;;5053613;28;20560;-78
2023/12/13 13:51:13;;;;;;;5.30;3.70;;;9.20;99.90;;;;;;5053565;28;20194;-78
2023/12/13 13:53:40;;;;;;;5.93;3.57;;;9.30;99.90;;;;;;5053457;28;20190;-78
2023/12/13 13:56:10;;;;;;;6.73;4.13;;;9.30;99.90;;;;;;5047236;28;20190;-78
2023/12/13 13:58:38;;;;;;;6.20;4.07;;;9.30;99.90;;;;;;5053481;28;20186;-78
2023/12/13 14:01:05;;;;;;;6.70;3.50;;;9.30;99.90;;;;;;5037820;28;20206;-78
2023/12/13 14:03:34;;;;;;;5.60;3.80;;;9.50;99.90;;;;;;5033631;28;20210;-78
2023/12/13 14:06:01;;;;;;;6.57;4.23;;;9.60;99.90;;;;;;5036950;28;20206;-78
2023/12/13 14:08:28;;;;;;;5.37;4.20;;;9.50;99.90;;;;;;5053404;28;20210;-78
2023/12/13 14:10:57;;;;;;;6.77;3.87;;;9.50;99.90;;;;;;5053800;28;20656;-78
2023/12/13 14:13:26;;;;;;;4.33;3.37;;;9.40;99.90;;;;;;5052552;28;20214;-78
2023/12/13 14:15:54;;;;;;;4.80;3.20;;;9.60;99.90;;;;;;5053302;28;20202;-78
2023/12/13 14:18:22;;;;;;;7.07;3.57;;;9.60;99.90;;;;;;5053737;28;20577;-78
2023/12/13 14:20:49;;;;;;;4.73;3.30;;;9.60;99.90;;;;;;5054013;28;20218;-78
2023/12/13 14:23:17;;;;;;;6.93;3.50;;;9.60;99.90;;;;;;5034160;28;20222;-78
2023/12/13 14:25:44;;;;;;;4.00;2.70;;;9.70;99.90;;;;;;5033434;28;20195;-78
2023/12/13 14:28:12;;;;;;;3.97;2.67;;;9.70;99.90;;;;;;5051403;28;20213;-78
2023/12/13 14:30:41;;;;;;;4.67;3.00;;;9.70;99.90;;;;;;5051622;28;20186;-79
2023/12/13 14:33:08;;;;;;;4.53;2.67;;;9.80;99.90;;;;;;5048634;28;20217;-79
2023/12/13 14:35:35;;;;;;;3.63;2.60;;;9.70;99.90;;;;;;5039113;28;20205;-78
2023/12/13 14:38:03;;;;;;;3.03;2.10;;;9.80;99.90;;;;;;5052977;28;20214;-78
2023/12/13 14:40:30;;;;;;;4.07;2.70;;;9.80;99.90;;;;;;5056760;28;20540;-78
2023/12/13 14:43:00;;;;;;;4.13;2.47;;;9.90;99.90;;;;;;5057453;28;20229;-78
2023/12/13 14:45:28;;;;;;;3.10;2.30;;;9.90;99.90;;;;;;5057092;28;20219;-78
2023/12/13 14:47:59;;;;;;;4.67;2.70;;;9.80;99.90;;;;;;5055151;28;20202;-78
2023/12/13 14:50:30;;;;;;;2.90;2.50;;;9.80;99.90;;;;;;5054351;28;20191;-78
2023/12/13 14:53:00;;;;;;;3.77;2.90;;;9.70;99.90;;;;;;5057128;28;20225;-78
2023/12/13 14:55:33;;;;;;;4.50;2.93;;;9.80;99.90;;;;;;5058068;28;20201;-78
2023/12/13 14:58:00;;;;;;;7.23;2.87;;;9.70;99.90;;;;;;5056721;28;20194;-78
2023/12/13 15:00:28;;;;;;;4.20;2.50;;;9.70;99.90;;;;;;5051044;28;20198;-78
2023/12/13 15:02:57;;;;;;;3.70;2.67;;;9.60;99.90;;;;;;5048955;28;20730;-78
2023/12/13 15:05:25;;;;;;;4.30;3.10;;;9.70;99.90;;;;;;5057051;28;20191;-78
2023/12/13 15:07:52;;;;;;;4.97;2.83;;;9.70;99.90;;;;;;5057726;28;20561;-78
2023/12/13 15:10:20;;;;;;;4.83;3.17;;;9.70;99.90;;;;;;5057259;28;20194;-78
2023/12/13 15:12:47;;;;;;;4.07;3.40;;;9.60;99.90;;;;;;5050796;28;20560;-78
2023/12/13 15:15:15;;;;;;;6.47;3.10;;;9.70;99.90;;;;;;5050817;28;20199;-78
2023/12/13 15:17:42;;;;;;;5.20;3.17;;;9.80;99.90;;;;;;5037338;28;20675;-79
2023/12/13 15:20:11;;;;;;;7.73;3.77;;;9.70;99.90;;;;;;5036981;28;20557;-78
2023/12/13 15:22:39;;;;;;;4.43;3.27;;;9.70;99.90;;;;;;5054366;28;20583;-78
2023/12/13 15:25:06;;;;;;;8.00;3.30;;;9.70;99.90;;;;;;5060479;28;20195;-78
2023/12/13 15:27:35;;;;;;;3.97;3.57;;;9.70;99.90;;;;;;5041795;28;20218;-78
2023/12/13 15:30:02;;;;;;;5.70;3.53;;;9.70;99.90;;;;;;5041070;28;20210;-79
2023/12/13 15:32:29;;;;;;;5.80;4.30;;;9.80;99.90;;;;;;5053574;28;20225;-78
2023/12/13 15:35:00;;;;;;;7.00;3.97;;;9.70;99.90;;;;;;5057723;28;20680;-78
2023/12/13 15:37:29;;;;;;;6.70;3.43;;;9.60;99.90;;;;;;5056213;28;20194;-78
2023/12/13 15:39:57;;;;;;;7.10;4.20;;;9.60;99.90;;;;;;5056644;28;20202;-78
2023/12/13 15:42:26;;;;;;;6.33;3.90;;;9.60;99.90;;;;;;5055595;28;20245;-78
2023/12/13 15:44:54;;;;;;;7.53;4.00;;;9.60;99.90;;;;;;5056371;28;20209;-78
2023/12/13 15:47:21;;;;;;;4.57;3.70;;;9.60;99.90;;;;;;5056848;28;20194;-78
2023/12/13 15:49:49;;;;;;;6.87;4.90;;;9.70;99.90;;;;;;5048912;28;20665;-79
2023/12/13 15:52:16;;;;;;;7.63;4.60;;;9.90;99.90;;;;;;5051755;28;20219;-79
2023/12/13 15:54:45;;;;;;;8.63;5.00;;;10.00;99.90;;;;;;5055912;28;20210;-79
2023/12/13 15:57:15;;;;;;;6.70;4.87;;;10.00;99.90;;;;;;5056919;28;20202;-79
2023/12/13 15:59:43;;;;;;;7.40;4.80;;;10.00;99.90;;;;;;5057334;28;20197;-78
2023/12/13 16:02:10;;;;;;;6.73;5.13;;;9.90;99.90;;;;;;5035895;28;20218;-78
2023/12/13 16:04:37;;;;;;;8.17;6.17;;;9.90;99.90;;;;;;5041185;28;20195;-78
2023/12/13 16:07:05;;;;;;;8.73;5.87;;;9.80;99.90;;;;;;5056246;28;20567;-78
2023/12/13 16:09:33;;;;;;;6.43;5.63;;;9.70;99.90;;;;;;5046628;28;20206;-81
2023/12/13 16:12:02;;;;;;;6.57;5.50;;;9.70;99.90;;;;;;5037479;28;20215;-81
2023/12/13 16:14:34;;;;;;;7.97;5.57;;;9.70;99.90;;;;;;5050391;28;20194;-80
2023/12/13 16:17:01;;;;;;;7.73;4.90;;;9.70;99.90;;;;;;5055296;28;20202;-80
2023/12/13 16:19:31;;;;;;;6.83;5.60;;;9.80;99.90;;;;;;5052767;28;20545;-80
2023/12/13 16:21:58;;;;;;;5.93;4.50;;;9.80;99.90;;;;;;5045902;28;20222;-80
2023/12/13 16:24:39;;;;;;;12.07;6.47;;;10.20;99.90;;;;;;5046537;28;20213;-80
2023/12/13 16:27:11;;;;;;;6.53;4.57;;;10.70;99.90;;;;;;5054035;28;20194;-81
2023/12/13 16:29:39;;;;;;;11.37;6.80;;;11.10;99.90;;;;;;5052607;28;20198;-80
2023/12/13 16:32:06;;;;;;;10.50;6.80;;;10.60;99.90;;;;;;5049038;28;20214;-80
2023/12/13 16:34:34;;;;;;;10.70;7.53;;;10.20;99.90;;;;;;5050783;28;20195;-80
2023/12/13 16:37:01;;;;;;;8.57;7.43;;;10.00;99.90;;;;;;5049301;28;20209;-80
2023/12/13 16:39:29;;;;;;;8.97;7.27;;;9.80;99.90;;;;;;5046871;28;20559;-80
2023/12/13 16:41:59;;;;;;;9.47;7.80;;;9.70;99.90;;;;;;5049160;28;20226;-80
2023/12/13 16:44:28;;;;;;;10.55;7.40;;;9.60;99.90;;;;;;5052280;28;20202;-80
2023/12/13 16:46:55;;;;;;;10.50;7.60;;;9.70;99.90;;;;;;5050054;28;20202;-80
2023/12/13 16:49:23;;;;;;;12.23;8.33;;;9.80;99.90;;;;;;5053625;28;20209;-80
2023/12/13 16:51:53;;;;;;;11.43;8.87;;;9.90;99.90;;;;;;5051641;28;20591;-80
2023/12/13 16:54:21;;;;;;;12.00;9.55;;;9.80;99.90;;;;;;5051921;28;20198;-80
2023/12/13 16:56:48;;;;;;;13.60;9.57;;;9.80;99.90;;;;;;5052782;28;20668;-79
2023/12/13 16:59:16;;;;;;;11.40;8.83;;;9.80;99.90;;;;;;5053262;28;20201;-79
2023/12/13 17:01:45;;;;;;;12.57;8.57;;;9.70;99.90;;;;;;5045999;28;20770;-79
2023/12/13 17:04:15;;;;;;;13.73;9.67;;;9.70;99.90;;;;;;5053112;28;20234;-79
2023/12/13 17:06:42;;;;;;;15.27;10.17;;;9.70;99.90;;;;;;5038320;28;20201;-79
2023/12/13 17:09:12;;;;;;;11.10;8.23;;;9.70;99.90;;;;;;5045428;28;20206;-80
2023/12/13 17:11:40;;;;;;;12.03;8.97;;;9.60;99.90;;;;;;5051165;28;20225;-80
2023/12/13 17:14:07;;;;;;;13.43;9.03;;;9.60;99.90;;;;;;5047913;28;20218;-80
2023/12/13 17:16:35;;;;;;;12.63;8.60;;;9.60;99.90;;;;;;5071781;28;20207;-79
2023/12/13 17:19:05;;;;;;;11.47;9.23;;;9.60;99.90;;;;;;5050190;28;20209;-80
2023/12/13 17:21:33;;;;;;;13.60;8.90;;;9.60;99.90;;;;;;5050134;28;20229;-80
2023/12/13 17:24:02;;;;;;;12.20;8.53;;;9.70;99.90;;;;;;5051615;28;20714;-80
2023/12/13 17:26:31;;;;;;;13.10;8.57;;;9.60;99.90;;;;;;5046512;28;20210;-79
2023/12/13 17:28:59;;;;;;;12.73;8.60;;;9.70;99.90;;;;;;5052607;28;20541;-79
2023/12/13 17:31:26;;;;;;;9.23;8.20;;;9.70;99.90;;;;;;5045092;28;20684;-79
2023/12/13 17:33:53;;;;;;;11.30;8.20;;;9.60;99.90;;;;;;5054781;28;20191;-79
2023/12/13 17:36:24;;;;;;;11.67;8.23;;;9.60;99.90;;;;;;5063624;28;20194;-79
2023/12/13 17:38:52;;;;;;;12.23;8.90;;;9.50;99.90;;;;;;5050867;28;20199;-80
2023/12/13 17:41:20;;;;;;;11.47;7.97;;;9.60;99.90;;;;;;5051194;28;20190;-80
2023/12/13 17:43:49;;;;;;;10.50;7.97;;;9.60;99.90;;;;;;5051974;28;20229;-79
2023/12/13 17:46:21;;;;;;;10.27;7.57;;;9.60;99.90;;;;;;5052975;28;20652;-79
2023/12/13 17:48:49;;;;;;;11.80;8.47;;;9.60;99.90;;;;;;5050864;28;20206;-80
2023/12/13 17:51:16;;;;;;;9.67;7.93;;;9.60;99.90;;;;;;5054058;28;20206;-82
2023/12/13 17:53:47;;;;;;;8.03;7.23;;;9.70;99.90;;;;;;5046997;28;20199;-82
2023/12/13 17:56:17;;;;;;;11.33;8.37;;;9.70;99.90;;;;;;5037897;28;20195;-78
2023/12/13 17:58:45;;;;;;;9.30;7.60;;;9.60;99.90;;;;;;5045974;28;20203;-80
2023/12/13 18:01:13;;;;;;;12.17;7.97;;;9.60;99.90;;;;;;5050604;28;20205;-80
2023/12/13 18:03:41;;;;;;;12.23;9.00;;;9.60;99.90;;;;;;5049999;28;20226;-80
2023/12/13 18:06:32;;;;;;;9.87;7.70;;;9.50;99.90;;;;;;5034598;28;20775;-80
2023/12/13 18:09:04;;;;;;;10.47;7.80;;;9.50;99.90;;;;;;5035459;28;20199;-80
2023/12/13 18:11:47;;;;;;;;;;;;;;;;;;;;;
2023/12/13 18:14:26;;;;;;;11.07;8.37;;;9.50;99.90;;;;;;5036118;28;20189;-80
2023/12/13 18:17:12;;;;;;;11.00;9.10;;;9.40;99.90;;;;;;5049440;28;20209;-80
2023/12/13 18:19:39;;;;;;;10.17;8.23;;;9.50;99.90;;;;;;5041812;28;20205;-80
2023/12/13 18:22:07;;;;;;;11.70;8.57;;;9.40;99.90;;;;;;5045422;28;20245;-80
2023/12/13 18:24:38;;;;;;;9.57;8.20;;;9.30;99.90;;;;;;5048742;28;20218;-83
2023/12/13 18:27:05;;;;;;;11.77;8.60;;;9.30;99.90;;;;;;5047684;28;20694;-82
2023/12/13 18:29:33;;;;;;;10.23;7.90;;;9.30;99.90;;;;;;5055560;28;20194;-82
2023/12/13 18:32:05;;;;;;;11.27;8.70;;;9.40;99.90;;;;;;5040510;28;20223;-79
2023/12/13 18:34:36;;;;;;;13.33;9.67;;;9.50;99.90;;;;;;5040517;28;20187;-80
2023/12/13 18:37:04;;;;;;;11.03;8.73;;;9.40;99.90;;;;;;5042591;28;20218;-80
2023/12/13 18:39:32;;;;;;;12.73;9.03;;;9.40;99.90;;;;;;5050811;28;20232;-79
2023/12/13 18:42:01;;;;;;;10.03;8.73;;;9.40;99.90;;;;;;5047539;28;20233;-80
2023/12/13 18:44:28;;;;;;;12.87;9.90;;;9.50;99.90;;;;;;5046494;28;20218;-80
2023/12/13 18:46:56;;;;;;;11.80;9.20;;;9.50;99.90;;;;;;5052423;28;20206;-80
2023/12/13 18:49:28;;;;;;;14.07;10.23;;;9.40;99.90;;;;;;5040310;28;20207;-80
2023/12/13 18:52:03;;;;;;;13.90;10.93;;;9.40;99.90;;;;;;5034317;28;20207;-79
2023/12/13 18:54:31;;;;;;;13.40;10.77;;;9.40;99.90;;;;;;5040732;28;20175;-79
2023/12/13 18:57:02;;;;;;;14.07;10.83;;;9.50;99.90;;;;;;5047796;28;20213;-79
2023/12/13 18:59:31;;;;;;;13.47;10.50;;;9.30;99.90;;;;;;5054055;28;20524;-79
2023/12/13 19:01:59;;;;;;;14.60;11.37;;;9.40;99.90;;;;;;5048934;28;20708;-79
2023/12/13 19:04:26;;;;;;;15.20;11.87;;;9.30;99.90;;;;;;5032467;28;20218;-80
2023/12/13 19:06:53;;;;;;;15.77;11.97;;;9.30;99.90;;;;;;5047278;28;20198;-80
2023/12/13 19:09:37;;;;;;;15.23;12.70;;;9.30;99.90;;;;;;5050545;28;20198;-79
2023/12/13 19:12:07;;;;;;;16.33;12.67;;;9.40;99.90;;;;;;5056988;28;20222;-80
2023/12/13 19:14:35;;;;;;;15.63;12.13;;;9.40;99.90;;;;;;5048039;28;20187;-79
2023/12/13 19:17:02;;;;;;;14.97;12.20;;;9.40;99.90;;;;;;5047615;28;20191;-79
2023/12/13 19:19:29;;;;;;;14.73;11.97;;;9.40;99.90;;;;;;5045007;28;20209;-79
2023/12/13 19:21:57;;;;;;;12.97;10.90;;;9.40;99.90;;;;;;5040053;28;20241;-79
2023/12/13 19:24:24;;;;;;;16.90;11.87;;;9.30;99.90;;;;;;5040660;28;20211;-79
2023/12/13 19:26:52;;;;;;;14.97;12.13;;;9.30;99.90;;;;;;5055708;28;20202;-80
2023/12/13 19:29:22;;;;;;;15.30;12.67;;;9.30;99.90;;;;;;5056063;28;20198;-80